Antigonish, Canada
Current Conditions -  °F | °C
As of 4:51 AM on Friday 24 Oct 2014 (Local Time) from CYPD Reporting Station
Overcast Overcast  
Wind Chill: 52°   Ceiling: 800
Heat Index: 52°   Visibility: 9mi
Dew Point: 50°   Wind: 22mph
Humidity: 94%   Direction: 60°ENE
Pressure: 29.67"   Gusts: 37mph
Location:  45.62°N, 61.99°W
Report Text: CYPD 240751Z AUTO 06019G32KT 9SM OVC008 11/10 A2967 RMK PRESRR PCPN 1.5MM PAST HR SLP050
Loading
Personal Weather Stations






























Interactive Weather Map
Tropical Storm Tracking
New forecast layout! Learn more

10-Day Weather Forecast

Advertisements
Track Severe Weather on mobile